Terminal Aerodrome Forecast
Issued by NWS

Home | Current Version | Previous Version | Text Only | Print | Product List | Glossary On
Versions: 1 2 3 4 5 6 7 8 9 10 11
000
FTUS45 KGJT 230019 RRA
TAFCNY
TAF
KCNY 230019Z 2300/2324 19015KT P6SM BKN110 OVC150
     FM230400 21007KT P6SM SCT110 OVC150
     FM230800 25012G20KT P6SM VCSH SCT070 BKN090
     FM231100 25012G20KT P6SM -SHRA BKN060 OVC080
     FM231800 21010G18KT P6SM VCSH BKN060 OVC080=

USA.gov is the U.S. government's official web portal to all federal, state and local government web resources and services.